sensor_id;sensor_type;location;lat;lon;timestamp;P1;durP1;ratioP1;P2;durP2;ratioP2
7931;SDS011;4011;49.424;10.894;2024-01-06T00:00:00;6.63;;;4.65;;
7931;SDS011;4011;49.424;10.894;2024-01-06T00:05:22;6.68;;;5.32;;
7931;SDS011;4011;49.424;10.894;2024-01-06T00:10:46;7.80;;;5.43;;
7931;SDS011;4011;49.424;10.894;2024-01-06T00:16:07;6.20;;;5.13;;
7931;SDS011;4011;49.424;10.894;2024-01-06T00:21:29;7.57;;;5.28;;
7931;SDS011;4011;49.424;10.894;2024-01-06T00:26:51;6.90;;;5.07;;
7931;SDS011;4011;49.424;10.894;2024-01-06T00:32:13;7.07;;;5.30;;
7931;SDS011;4011;49.424;10.894;2024-01-06T00:37:34;6.13;;;4.75;;
7931;SDS011;4011;49.424;10.894;2024-01-06T00:42:57;6.22;;;5.22;;
7931;SDS011;4011;49.424;10.894;2024-01-06T00:48:18;7.20;;;4.78;;
7931;SDS011;4011;49.424;10.894;2024-01-06T00:53:39;6.10;;;4.85;;
7931;SDS011;4011;49.424;10.894;2024-01-06T00:59:02;6.72;;;4.85;;
7931;SDS011;4011;49.424;10.894;2024-01-06T01:04:24;5.97;;;4.70;;
7931;SDS011;4011;49.424;10.894;2024-01-06T01:09:46;5.28;;;3.92;;
7931;SDS011;4011;49.424;10.894;2024-01-06T01:15:09;6.30;;;4.82;;
7931;SDS011;4011;49.424;10.894;2024-01-06T01:20:30;5.75;;;4.57;;
7931;SDS011;4011;49.424;10.894;2024-01-06T01:25:51;6.45;;;4.63;;
7931;SDS011;4011;49.424;10.894;2024-01-06T01:31:14;6.60;;;5.18;;
7931;SDS011;4011;49.424;10.894;2024-01-06T01:36:35;5.50;;;4.35;;
7931;SDS011;4011;49.424;10.894;2024-01-06T01:41:57;5.15;;;3.95;;
7931;SDS011;4011;49.424;10.894;2024-01-06T01:47:19;5.10;;;4.05;;
7931;SDS011;4011;49.424;10.894;2024-01-06T01:52:41;6.03;;;4.50;;
7931;SDS011;4011;49.424;10.894;2024-01-06T01:58:03;6.05;;;4.38;;
7931;SDS011;4011;49.424;10.894;2024-01-06T02:03:26;5.82;;;4.32;;
7931;SDS011;4011;49.424;10.894;2024-01-06T02:08:47;5.05;;;4.20;;
7931;SDS011;4011;49.424;10.894;2024-01-06T02:14:08;5.30;;;4.30;;
7931;SDS011;4011;49.424;10.894;2024-01-06T02:19:31;5.13;;;4.30;;
7931;SDS011;4011;49.424;10.894;2024-01-06T02:24:54;4.68;;;4.00;;
7931;SDS011;4011;49.424;10.894;2024-01-06T02:30:15;6.15;;;4.82;;
7931;SDS011;4011;49.424;10.894;2024-01-06T02:35:36;5.78;;;4.10;;
7931;SDS011;4011;49.424;10.894;2024-01-06T02:41:01;5.13;;;3.90;;
7931;SDS011;4011;49.424;10.894;2024-01-06T02:46:24;5.43;;;3.83;;
7931;SDS011;4011;49.424;10.894;2024-01-06T02:51:45;6.03;;;4.03;;
7931;SDS011;4011;49.424;10.894;2024-01-06T02:57:08;5.95;;;4.50;;
7931;SDS011;4011;49.424;10.894;2024-01-06T03:02:29;5.15;;;3.88;;
7931;SDS011;4011;49.424;10.894;2024-01-06T03:13:38;4.97;;;4.35;;
7931;SDS011;4011;49.424;10.894;2024-01-06T03:19:00;6.22;;;3.88;;
7931;SDS011;4011;49.424;10.894;2024-01-06T03:24:21;5.32;;;4.13;;
7931;SDS011;4011;49.424;10.894;2024-01-06T03:29:44;4.95;;;3.90;;
7931;SDS011;4011;49.424;10.894;2024-01-06T03:35:05;5.03;;;4.20;;
7931;SDS011;4011;49.424;10.894;2024-01-06T03:40:27;5.15;;;3.78;;
7931;SDS011;4011;49.424;10.894;2024-01-06T03:45:50;5.45;;;4.03;;
7931;SDS011;4011;49.424;10.894;2024-01-06T03:51:12;4.97;;;3.63;;
7931;SDS011;4011;49.424;10.894;2024-01-06T03:56:33;5.00;;;3.85;;
7931;SDS011;4011;49.424;10.894;2024-01-06T04:01:56;6.13;;;4.22;;
7931;SDS011;4011;49.424;10.894;2024-01-06T04:07:17;5.45;;;3.40;;
7931;SDS011;4011;49.424;10.894;2024-01-06T04:12:38;4.55;;;3.53;;
7931;SDS011;4011;49.424;10.894;2024-01-06T04:18:02;4.95;;;3.55;;
7931;SDS011;4011;49.424;10.894;2024-01-06T04:23:24;4.40;;;3.65;;
7931;SDS011;4011;49.424;10.894;2024-01-06T04:28:45;5.18;;;3.70;;
7931;SDS011;4011;49.424;10.894;2024-01-06T04:34:08;4.95;;;3.75;;
7931;SDS011;4011;49.424;10.894;2024-01-06T04:39:29;5.28;;;3.58;;
7931;SDS011;4011;49.424;10.894;2024-01-06T04:44:51;5.43;;;3.90;;
7931;SDS011;4011;49.424;10.894;2024-01-06T04:50:13;5.45;;;3.60;;
7931;SDS011;4011;49.424;10.894;2024-01-06T04:55:35;4.28;;;3.42;;
7931;SDS011;4011;49.424;10.894;2024-01-06T05:00:58;4.10;;;3.22;;
7931;SDS011;4011;49.424;10.894;2024-01-06T05:06:21;4.82;;;3.25;;
7931;SDS011;4011;49.424;10.894;2024-01-06T05:11:43;5.10;;;3.80;;
7931;SDS011;4011;49.424;10.894;2024-01-06T05:17:04;5.13;;;3.35;;
7931;SDS011;4011;49.424;10.894;2024-01-06T05:22:28;4.35;;;3.35;;
7931;SDS011;4011;49.424;10.894;2024-01-06T05:27:49;4.40;;;3.30;;
7931;SDS011;4011;49.424;10.894;2024-01-06T05:33:11;5.25;;;3.42;;
7931;SDS011;4011;49.424;10.894;2024-01-06T05:38:37;4.30;;;3.15;;
7931;SDS011;4011;49.424;10.894;2024-01-06T05:43:58;4.53;;;3.20;;
7931;SDS011;4011;49.424;10.894;2024-01-06T05:49:19;5.72;;;4.03;;
7931;SDS011;4011;49.424;10.894;2024-01-06T05:54:42;5.28;;;3.63;;
7931;SDS011;4011;49.424;10.894;2024-01-06T06:00:06;5.55;;;3.80;;
7931;SDS011;4011;49.424;10.894;2024-01-06T06:05:28;5.07;;;3.30;;
7931;SDS011;4011;49.424;10.894;2024-01-06T06:10:51;5.25;;;3.83;;
7931;SDS011;4011;49.424;10.894;2024-01-06T06:16:21;5.40;;;3.95;;
7931;SDS011;4011;49.424;10.894;2024-01-06T06:21:42;5.60;;;3.85;;
7931;SDS011;4011;49.424;10.894;2024-01-06T06:27:05;4.75;;;3.78;;
7931;SDS011;4011;49.424;10.894;2024-01-06T06:32:26;5.35;;;4.00;;
7931;SDS011;4011;49.424;10.894;2024-01-06T06:37:48;5.32;;;3.70;;
7931;SDS011;4011;49.424;10.894;2024-01-06T06:43:11;5.70;;;3.58;;
7931;SDS011;4011;49.424;10.894;2024-01-06T06:48:33;4.85;;;3.50;;
7931;SDS011;4011;49.424;10.894;2024-01-06T06:53:55;5.75;;;3.85;;
7931;SDS011;4011;49.424;10.894;2024-01-06T06:59:19;4.10;;;3.10;;
7931;SDS011;4011;49.424;10.894;2024-01-06T07:04:41;5.28;;;3.63;;
7931;SDS011;4011;49.424;10.894;2024-01-06T07:10:02;4.90;;;3.78;;
7931;SDS011;4011;49.424;10.894;2024-01-06T07:15:26;4.55;;;3.72;;
7931;SDS011;4011;49.424;10.894;2024-01-06T07:20:47;4.50;;;3.10;;
7931;SDS011;4011;49.424;10.894;2024-01-06T07:26:09;4.90;;;3.80;;
7931;SDS011;4011;49.424;10.894;2024-01-06T07:31:32;4.30;;;3.35;;
7931;SDS011;4011;49.424;10.894;2024-01-06T07:36:53;4.50;;;3.50;;
7931;SDS011;4011;49.424;10.894;2024-01-06T07:42:14;4.28;;;3.38;;
7931;SDS011;4011;49.424;10.894;2024-01-06T07:47:37;5.18;;;3.38;;
7931;SDS011;4011;49.424;10.894;2024-01-06T07:52:59;4.63;;;2.97;;
7931;SDS011;4011;49.424;10.894;2024-01-06T07:58:20;4.97;;;3.05;;
7931;SDS011;4011;49.424;10.894;2024-01-06T08:03:43;4.68;;;3.30;;
7931;SDS011;4011;49.424;10.894;2024-01-06T08:09:05;4.38;;;3.30;;
7931;SDS011;4011;49.424;10.894;2024-01-06T08:14:28;5.00;;;3.45;;
7931;SDS011;4011;49.424;10.894;2024-01-06T08:19:51;4.85;;;3.03;;
7931;SDS011;4011;49.424;10.894;2024-01-06T08:25:12;4.57;;;3.47;;
7931;SDS011;4011;49.424;10.894;2024-01-06T08:30:34;4.20;;;3.00;;
7931;SDS011;4011;49.424;10.894;2024-01-06T08:35:56;4.97;;;3.55;;
7931;SDS011;4011;49.424;10.894;2024-01-06T08:41:18;4.30;;;3.47;;
7931;SDS011;4011;49.424;10.894;2024-01-06T08:46:39;4.75;;;3.50;;
7931;SDS011;4011;49.424;10.894;2024-01-06T08:52:02;4.90;;;3.20;;
7931;SDS011;4011;49.424;10.894;2024-01-06T08:57:23;5.68;;;3.70;;
7931;SDS011;4011;49.424;10.894;2024-01-06T09:02:45;6.10;;;3.90;;
7931;SDS011;4011;49.424;10.894;2024-01-06T09:08:08;7.43;;;4.00;;
7931;SDS011;4011;49.424;10.894;2024-01-06T09:13:29;6.07;;;4.15;;
7931;SDS011;4011;49.424;10.894;2024-01-06T09:18:52;5.43;;;3.72;;
7931;SDS011;4011;49.424;10.894;2024-01-06T09:24:14;6.32;;;3.78;;
7931;SDS011;4011;49.424;10.894;2024-01-06T09:29:36;6.97;;;3.90;;
7931;SDS011;4011;49.424;10.894;2024-01-06T09:34:57;5.18;;;3.65;;
7931;SDS011;4011;49.424;10.894;2024-01-06T09:40:21;6.95;;;4.05;;
7931;SDS011;4011;49.424;10.894;2024-01-06T09:45:43;5.30;;;3.65;;
7931;SDS011;4011;49.424;10.894;2024-01-06T09:51:06;6.93;;;3.90;;
7931;SDS011;4011;49.424;10.894;2024-01-06T09:56:31;5.88;;;3.80;;
7931;SDS011;4011;49.424;10.894;2024-01-06T10:01:53;6.47;;;4.10;;
7931;SDS011;4011;49.424;10.894;2024-01-06T10:07:14;6.20;;;4.05;;
7931;SDS011;4011;49.424;10.894;2024-01-06T10:12:38;7.35;;;4.28;;
7931;SDS011;4011;49.424;10.894;2024-01-06T10:17:59;7.75;;;4.80;;
7931;SDS011;4011;49.424;10.894;2024-01-06T10:23:23;6.22;;;4.10;;
7931;SDS011;4011;49.424;10.894;2024-01-06T10:28:46;6.32;;;4.03;;
7931;SDS011;4011;49.424;10.894;2024-01-06T10:34:08;5.05;;;4.10;;
7931;SDS011;4011;49.424;10.894;2024-01-06T10:39:30;6.75;;;4.15;;
7931;SDS011;4011;49.424;10.894;2024-01-06T10:44:53;5.93;;;4.10;;
7931;SDS011;4011;49.424;10.894;2024-01-06T10:50:14;5.57;;;4.05;;
7931;SDS011;4011;49.424;10.894;2024-01-06T10:55:38;7.57;;;4.00;;
7931;SDS011;4011;49.424;10.894;2024-01-06T11:01:02;5.38;;;3.45;;
7931;SDS011;4011;49.424;10.894;2024-01-06T11:06:23;8.02;;;3.80;;
7931;SDS011;4011;49.424;10.894;2024-01-06T11:11:45;6.72;;;3.72;;
7931;SDS011;4011;49.424;10.894;2024-01-06T11:17:08;6.82;;;4.10;;
7931;SDS011;4011;49.424;10.894;2024-01-06T11:22:30;4.40;;;3.25;;
7931;SDS011;4011;49.424;10.894;2024-01-06T11:27:52;5.45;;;3.55;;
7931;SDS011;4011;49.424;10.894;2024-01-06T11:33:18;4.68;;;3.28;;
7931;SDS011;4011;49.424;10.894;2024-01-06T11:38:40;4.30;;;3.20;;
7931;SDS011;4011;49.424;10.894;2024-01-06T11:44:01;4.65;;;2.85;;
7931;SDS011;4011;49.424;10.894;2024-01-06T11:49:25;4.75;;;2.80;;
7931;SDS011;4011;49.424;10.894;2024-01-06T11:54:47;5.60;;;3.13;;
7931;SDS011;4011;49.424;10.894;2024-01-06T12:00:10;4.82;;;2.90;;
7931;SDS011;4011;49.424;10.894;2024-01-06T12:05:33;4.57;;;2.80;;
7931;SDS011;4011;49.424;10.894;2024-01-06T12:11:01;4.78;;;2.63;;
7931;SDS011;4011;49.424;10.894;2024-01-06T12:16:23;4.43;;;2.70;;
7931;SDS011;4011;49.424;10.894;2024-01-06T12:21:48;4.35;;;2.72;;
7931;SDS011;4011;49.424;10.894;2024-01-06T12:27:10;5.47;;;2.60;;
7931;SDS011;4011;49.424;10.894;2024-01-06T12:32:31;3.95;;;2.65;;
7931;SDS011;4011;49.424;10.894;2024-01-06T12:37:55;4.45;;;2.38;;
7931;SDS011;4011;49.424;10.894;2024-01-06T12:43:16;4.68;;;2.75;;
7931;SDS011;4011;49.424;10.894;2024-01-06T12:48:38;4.60;;;2.42;;
7931;SDS011;4011;49.424;10.894;2024-01-06T12:54:00;7.53;;;2.40;;
7931;SDS011;4011;49.424;10.894;2024-01-06T12:59:22;5.47;;;2.50;;
7931;SDS011;4011;49.424;10.894;2024-01-06T13:04:43;3.85;;;2.28;;
7931;SDS011;4011;49.424;10.894;2024-01-06T13:10:07;4.18;;;2.20;;
7931;SDS011;4011;49.424;10.894;2024-01-06T13:15:28;4.03;;;2.30;;
7931;SDS011;4011;49.424;10.894;2024-01-06T13:20:49;4.00;;;2.20;;
7931;SDS011;4011;49.424;10.894;2024-01-06T13:26:12;4.35;;;1.85;;
7931;SDS011;4011;49.424;10.894;2024-01-06T13:31:33;4.38;;;2.13;;
7931;SDS011;4011;49.424;10.894;2024-01-06T13:36:55;3.97;;;2.05;;
7931;SDS011;4011;49.424;10.894;2024-01-06T13:42:18;3.47;;;1.90;;
7931;SDS011;4011;49.424;10.894;2024-01-06T13:47:41;3.60;;;2.00;;
7931;SDS011;4011;49.424;10.894;2024-01-06T13:53:04;4.18;;;2.10;;
7931;SDS011;4011;49.424;10.894;2024-01-06T13:58:28;3.20;;;2.03;;
7931;SDS011;4011;49.424;10.894;2024-01-06T14:03:50;4.35;;;2.10;;
7931;SDS011;4011;49.424;10.894;2024-01-06T14:09:17;3.28;;;2.20;;
7931;SDS011;4011;49.424;10.894;2024-01-06T14:14:40;3.30;;;1.83;;
7931;SDS011;4011;49.424;10.894;2024-01-06T14:20:02;2.95;;;1.90;;
7931;SDS011;4011;49.424;10.894;2024-01-06T14:25:24;3.35;;;2.10;;
7931;SDS011;4011;49.424;10.894;2024-01-06T14:30:47;3.22;;;1.90;;
7931;SDS011;4011;49.424;10.894;2024-01-06T14:36:08;4.93;;;1.90;;
7931;SDS011;4011;49.424;10.894;2024-01-06T14:41:30;3.10;;;1.80;;
7931;SDS011;4011;49.424;10.894;2024-01-06T14:46:52;3.22;;;1.90;;
7931;SDS011;4011;49.424;10.894;2024-01-06T14:52:14;2.80;;;1.70;;
7931;SDS011;4011;49.424;10.894;2024-01-06T14:57:35;3.50;;;2.25;;
7931;SDS011;4011;49.424;10.894;2024-01-06T15:02:58;3.90;;;1.80;;
7931;SDS011;4011;49.424;10.894;2024-01-06T15:08:19;3.20;;;2.00;;
7931;SDS011;4011;49.424;10.894;2024-01-06T15:13:41;3.33;;;1.98;;
7931;SDS011;4011;49.424;10.894;2024-01-06T15:19:06;3.55;;;2.00;;
7931;SDS011;4011;49.424;10.894;2024-01-06T15:24:28;4.22;;;1.75;;
7931;SDS011;4011;49.424;10.894;2024-01-06T15:29:49;3.38;;;2.15;;
7931;SDS011;4011;49.424;10.894;2024-01-06T15:35:12;2.65;;;1.80;;
7931;SDS011;4011;49.424;10.894;2024-01-06T15:40:33;3.22;;;1.73;;
7931;SDS011;4011;49.424;10.894;2024-01-06T15:45:55;3.35;;;1.80;;
7931;SDS011;4011;49.424;10.894;2024-01-06T15:51:17;3.20;;;1.95;;
7931;SDS011;4011;49.424;10.894;2024-01-06T15:56:39;3.15;;;1.60;;
7931;SDS011;4011;49.424;10.894;2024-01-06T16:02:00;3.03;;;1.80;;
7931;SDS011;4011;49.424;10.894;2024-01-06T16:07:23;3.70;;;1.80;;
7931;SDS011;4011;49.424;10.894;2024-01-06T16:12:46;4.35;;;1.95;;
7931;SDS011;4011;49.424;10.894;2024-01-06T16:18:07;3.38;;;1.90;;
7931;SDS011;4011;49.424;10.894;2024-01-06T16:23:30;4.30;;;2.10;;
7931;SDS011;4011;49.424;10.894;2024-01-06T16:28:52;3.40;;;2.20;;
7931;SDS011;4011;49.424;10.894;2024-01-06T16:34:15;3.53;;;2.00;;
7931;SDS011;4011;49.424;10.894;2024-01-06T16:39:37;3.50;;;2.10;;
7931;SDS011;4011;49.424;10.894;2024-01-06T16:44:59;4.22;;;2.33;;
7931;SDS011;4011;49.424;10.894;2024-01-06T16:50:20;3.58;;;2.00;;
7931;SDS011;4011;49.424;10.894;2024-01-06T16:55:43;3.80;;;2.35;;
7931;SDS011;4011;49.424;10.894;2024-01-06T17:01:04;4.75;;;2.45;;
7931;SDS011;4011;49.424;10.894;2024-01-06T17:06:26;4.43;;;2.03;;
7931;SDS011;4011;49.424;10.894;2024-01-06T17:11:49;3.95;;;2.20;;
7931;SDS011;4011;49.424;10.894;2024-01-06T17:17:17;4.22;;;2.40;;
7931;SDS011;4011;49.424;10.894;2024-01-06T17:22:38;4.75;;;2.58;;
7931;SDS011;4011;49.424;10.894;2024-01-06T17:28:01;3.92;;;2.40;;
7931;SDS011;4011;49.424;10.894;2024-01-06T17:33:22;4.20;;;2.20;;
7931;SDS011;4011;49.424;10.894;2024-01-06T17:38:44;4.30;;;2.72;;
7931;SDS011;4011;49.424;10.894;2024-01-06T17:44:06;5.15;;;2.58;;
7931;SDS011;4011;49.424;10.894;2024-01-06T17:49:29;4.10;;;2.60;;
7931;SDS011;4011;49.424;10.894;2024-01-06T17:54:50;4.38;;;2.67;;
7931;SDS011;4011;49.424;10.894;2024-01-06T18:00:14;4.30;;;2.60;;
7931;SDS011;4011;49.424;10.894;2024-01-06T18:05:35;5.10;;;2.80;;
7931;SDS011;4011;49.424;10.894;2024-01-06T18:10:56;5.50;;;2.60;;
7931;SDS011;4011;49.424;10.894;2024-01-06T18:16:19;4.30;;;2.58;;
7931;SDS011;4011;49.424;10.894;2024-01-06T18:21:40;3.92;;;2.60;;
7931;SDS011;4011;49.424;10.894;2024-01-06T18:27:02;3.80;;;2.25;;
7931;SDS011;4011;49.424;10.894;2024-01-06T18:32:25;4.65;;;2.65;;
7931;SDS011;4011;49.424;10.894;2024-01-06T18:37:47;4.78;;;2.95;;
7931;SDS011;4011;49.424;10.894;2024-01-06T18:43:08;4.93;;;3.30;;
7931;SDS011;4011;49.424;10.894;2024-01-06T18:48:31;4.22;;;2.92;;
7931;SDS011;4011;49.424;10.894;2024-01-06T18:53:52;3.97;;;2.75;;
7931;SDS011;4011;49.424;10.894;2024-01-06T18:59:13;22.58;;;7.03;;
7931;SDS011;4011;49.424;10.894;2024-01-06T19:04:36;20.10;;;7.15;;
7931;SDS011;4011;49.424;10.894;2024-01-06T19:09:57;21.80;;;6.60;;
7931;SDS011;4011;49.424;10.894;2024-01-06T19:15:19;18.48;;;6.25;;
7931;SDS011;4011;49.424;10.894;2024-01-06T19:20:42;16.70;;;6.05;;
7931;SDS011;4011;49.424;10.894;2024-01-06T19:26:04;13.20;;;5.05;;
7931;SDS011;4011;49.424;10.894;2024-01-06T19:31:25;11.80;;;4.93;;
7931;SDS011;4011;49.424;10.894;2024-01-06T19:36:48;11.45;;;4.55;;
7931;SDS011;4011;49.424;10.894;2024-01-06T19:42:09;9.45;;;4.05;;
7931;SDS011;4011;49.424;10.894;2024-01-06T19:47:31;9.27;;;4.53;;
7931;SDS011;4011;49.424;10.894;2024-01-06T19:52:56;7.97;;;4.25;;
7931;SDS011;4011;49.424;10.894;2024-01-06T19:58:20;9.00;;;4.90;;
7931;SDS011;4011;49.424;10.894;2024-01-06T20:03:41;8.38;;;3.58;;
7931;SDS011;4011;49.424;10.894;2024-01-06T20:09:04;7.57;;;3.83;;
7931;SDS011;4011;49.424;10.894;2024-01-06T20:14:26;7.15;;;4.18;;
7931;SDS011;4011;49.424;10.894;2024-01-06T20:19:48;7.53;;;3.97;;
7931;SDS011;4011;49.424;10.894;2024-01-06T20:25:10;6.70;;;4.20;;
7931;SDS011;4011;49.424;10.894;2024-01-06T20:30:32;7.00;;;4.00;;
7931;SDS011;4011;49.424;10.894;2024-01-06T20:35:53;7.05;;;4.20;;
7931;SDS011;4011;49.424;10.894;2024-01-06T20:41:16;7.13;;;4.72;;
7931;SDS011;4011;49.424;10.894;2024-01-06T20:46:38;6.18;;;4.40;;
7931;SDS011;4011;49.424;10.894;2024-01-06T20:51:59;6.05;;;3.92;;
7931;SDS011;4011;49.424;10.894;2024-01-06T20:57:22;7.18;;;4.50;;
7931;SDS011;4011;49.424;10.894;2024-01-06T21:02:43;5.68;;;3.88;;
7931;SDS011;4011;49.424;10.894;2024-01-06T21:08:05;6.75;;;3.90;;
7931;SDS011;4011;49.424;10.894;2024-01-06T21:13:28;5.90;;;4.03;;
7931;SDS011;4011;49.424;10.894;2024-01-06T21:18:49;6.95;;;4.38;;
7931;SDS011;4011;49.424;10.894;2024-01-06T21:24:12;5.22;;;4.00;;
7931;SDS011;4011;49.424;10.894;2024-01-06T21:29:34;6.38;;;3.60;;
7931;SDS011;4011;49.424;10.894;2024-01-06T21:34:56;5.45;;;4.13;;
7931;SDS011;4011;49.424;10.894;2024-01-06T21:40:19;5.30;;;3.58;;
7931;SDS011;4011;49.424;10.894;2024-01-06T21:45:41;5.18;;;3.58;;
7931;SDS011;4011;49.424;10.894;2024-01-06T21:51:03;5.18;;;3.17;;
7931;SDS011;4011;49.424;10.894;2024-01-06T21:56:24;5.00;;;3.25;;
7931;SDS011;4011;49.424;10.894;2024-01-06T22:01:47;4.53;;;3.10;;
7931;SDS011;4011;49.424;10.894;2024-01-06T22:07:09;5.50;;;4.07;;
7931;SDS011;4011;49.424;10.894;2024-01-06T22:12:30;5.85;;;3.80;;
7931;SDS011;4011;49.424;10.894;2024-01-06T22:17:54;5.22;;;3.60;;
7931;SDS011;4011;49.424;10.894;2024-01-06T22:23:15;4.68;;;3.10;;
7931;SDS011;4011;49.424;10.894;2024-01-06T22:28:36;4.10;;;3.00;;
7931;SDS011;4011;49.424;10.894;2024-01-06T22:33:59;4.28;;;2.90;;
7931;SDS011;4011;49.424;10.894;2024-01-06T22:39:21;5.55;;;3.40;;
7931;SDS011;4011;49.424;10.894;2024-01-06T22:44:45;4.20;;;3.10;;
7931;SDS011;4011;49.424;10.894;2024-01-06T22:50:08;4.63;;;2.85;;
7931;SDS011;4011;49.424;10.894;2024-01-06T22:55:29;4.03;;;3.00;;
7931;SDS011;4011;49.424;10.894;2024-01-06T23:00:51;4.10;;;2.92;;
7931;SDS011;4011;49.424;10.894;2024-01-06T23:06:14;4.63;;;2.83;;
7931;SDS011;4011;49.424;10.894;2024-01-06T23:11:35;5.15;;;2.97;;
7931;SDS011;4011;49.424;10.894;2024-01-06T23:16:57;4.00;;;2.90;;
7931;SDS011;4011;49.424;10.894;2024-01-06T23:22:20;4.05;;;2.90;;
7931;SDS011;4011;49.424;10.894;2024-01-06T23:27:41;3.75;;;2.95;;
7931;SDS011;4011;49.424;10.894;2024-01-06T23:33:02;4.63;;;3.20;;
7931;SDS011;4011;49.424;10.894;2024-01-06T23:38:25;4.15;;;3.10;;
7931;SDS011;4011;49.424;10.894;2024-01-06T23:43:47;3.88;;;2.72;;
7931;SDS011;4011;49.424;10.894;2024-01-06T23:49:10;4.57;;;2.80;;
7931;SDS011;4011;49.424;10.894;2024-01-06T23:54:33;4.35;;;3.10;;
7931;SDS011;4011;49.424;10.894;2024-01-06T23:59:58;4.32;;;2.83;;
